Time;durP1;ratioP1;P1;durP2;ratioP2;P2;SDS_P1;SDS_P2;PMS_P1;PMS_P2;Temp;Humidity;BMP_temperature;BMP_pressure;BME280_temperature;BME280_humidity;BME280_pressure;Samples;Min_cycle;Max_cycle;Signal;HPM_P1;HPM_P2
2022/12/26 00:01:19;;;;;;;48.75;16.02;;;10.90;99.90;;;;;;5055927;28;20099;-67
2022/12/26 00:03:44;;;;;;;42.78;16.33;;;10.80;99.90;;;;;;5055423;28;20450;-67
2022/12/26 00:06:16;;;;;;;33.95;16.73;;;10.80;99.90;;;;;;5055860;28;20033;-70
2022/12/26 00:08:42;;;;;;;44.08;16.67;;;10.80;99.90;;;;;;5054996;28;20028;-70
2022/12/26 00:11:08;;;;;;;129.45;18.90;;;10.80;99.90;;;;;;5055590;28;20029;-70
2022/12/26 00:13:34;;;;;;;37.45;17.38;;;10.80;99.90;;;;;;5054937;28;20447;-70
2022/12/26 00:16:12;;;;;;;65.47;17.60;;;10.80;99.90;;;;;;5054857;28;20493;-67
2022/12/26 00:18:38;;;;;;;34.20;18.10;;;10.80;99.90;;;;;;5054475;28;20036;-67
2022/12/26 00:21:06;;;;;;;35.85;18.90;;;10.80;99.90;;;;;;5054985;28;20048;-67
2022/12/26 00:23:32;;;;;;;34.55;18.95;;;10.80;99.90;;;;;;5055839;28;20086;-67
2022/12/26 00:26:10;;;;;;;36.15;19.13;;;10.70;99.90;;;;;;5055050;28;20025;-67
2022/12/26 00:28:36;;;;;;;38.17;19.65;;;10.70;99.90;;;;;;5055211;28;20468;-67
2022/12/26 00:31:05;;;;;;;39.67;19.98;;;10.60;99.90;;;;;;5053141;28;20040;-68
2022/12/26 00:33:30;;;;;;;41.13;20.80;;;10.60;99.90;;;;;;5054386;28;20469;-68
2022/12/26 00:36:06;;;;;;;37.10;20.27;;;10.60;99.90;;;;;;5055547;28;20087;-68
2022/12/26 00:38:33;;;;;;;47.72;21.67;;;10.60;99.90;;;;;;5055003;28;20029;-67
2022/12/26 00:40:59;;;;;;;38.92;21.10;;;10.60;99.90;;;;;;5054538;28;20035;-67
2022/12/26 00:43:25;;;;;;;44.80;22.10;;;10.60;99.90;;;;;;5054697;28;20033;-67
2022/12/26 00:45:50;;;;;;;50.58;22.33;;;10.60;99.90;;;;;;5053268;28;20112;-69
2022/12/26 00:48:16;;;;;;;47.78;23.58;;;10.60;99.90;;;;;;5054214;28;20033;-70
2022/12/26 00:50:42;;;;;;;50.45;23.92;;;10.70;99.90;;;;;;5054143;28;20037;-69
2022/12/26 00:53:07;;;;;;;50.35;23.55;;;10.60;99.90;;;;;;5054732;28;20029;-69
2022/12/26 00:55:33;;;;;;;46.67;23.23;;;10.70;99.90;;;;;;5054371;28;20419;-70
2022/12/26 00:57:58;;;;;;;45.95;23.17;;;10.70;99.90;;;;;;5054359;28;20056;-69
2022/12/26 01:00:24;;;;;;;44.30;22.55;;;10.70;99.90;;;;;;5053831;28;20512;-69
2022/12/26 01:02:50;;;;;;;45.97;24.20;;;10.70;99.90;;;;;;5053362;28;20039;-69
2022/12/26 01:05:15;;;;;;;43.33;23.88;;;10.80;99.90;;;;;;5053047;28;20115;-70
2022/12/26 01:07:41;;;;;;;44.00;23.83;;;10.70;99.90;;;;;;5054186;28;20024;-70
2022/12/26 01:10:08;;;;;;;42.75;23.23;;;10.70;99.90;;;;;;5052886;28;20496;-67
2022/12/26 01:12:34;;;;;;;40.03;23.38;;;10.70;99.90;;;;;;5053791;28;20033;-67
2022/12/26 01:15:00;;;;;;;35.75;22.35;;;10.70;99.90;;;;;;5054028;28;20048;-67
2022/12/26 01:17:27;;;;;;;38.17;23.60;;;10.70;99.90;;;;;;5052747;28;20222;-67
2022/12/26 01:19:53;;;;;;;34.65;22.52;;;10.70;99.90;;;;;;5053893;28;20033;-67
2022/12/26 01:22:19;;;;;;;38.17;23.30;;;10.70;99.90;;;;;;5052606;28;20029;-67
2022/12/26 01:24:45;;;;;;;39.92;23.85;;;10.60;99.90;;;;;;5053653;28;20132;-67
2022/12/26 01:27:11;;;;;;;38.28;24.15;;;10.60;99.90;;;;;;5054140;28;20112;-67
2022/12/26 01:29:37;;;;;;;40.15;23.38;;;10.60;99.90;;;;;;5053705;28;20035;-67
2022/12/26 01:32:03;;;;;;;38.30;23.60;;;10.60;99.90;;;;;;5053802;28;20111;-67
2022/12/26 01:34:28;;;;;;;36.05;22.83;;;10.60;99.90;;;;;;5053471;28;20037;-67
2022/12/26 01:36:54;;;;;;;34.53;22.50;;;10.60;99.90;;;;;;5052307;28;20029;-67
2022/12/26 01:39:20;;;;;;;38.20;23.55;;;10.60;99.90;;;;;;5053487;28;20025;-67
2022/12/26 01:41:46;;;;;;;38.08;22.35;;;10.60;99.90;;;;;;5053908;28;20041;-67
2022/12/26 01:44:49;;;;;;;37.97;23.05;;;10.60;99.90;;;;;;5053861;28;20419;-67
2022/12/26 01:47:16;;;;;;;36.22;22.45;;;10.60;99.90;;;;;;5054145;28;20370;-67
2022/12/26 01:49:49;;;;;;;34.38;21.60;;;10.60;99.90;;;;;;5053640;28;20040;-67
2022/12/26 01:52:21;;;;;;;36.88;22.02;;;10.60;99.90;;;;;;5054153;28;20091;-69
2022/12/26 01:54:50;;;;;;;34.72;22.33;;;10.60;99.90;;;;;;5053593;28;20025;-67
2022/12/26 01:57:23;;;;;;;32.47;21.48;;;10.60;99.90;;;;;;5053503;28;20079;-68
2022/12/26 01:59:51;;;;;;;28.42;19.48;;;10.60;99.90;;;;;;5053404;28;20025;-67
2022/12/26 02:02:19;;;;;;;29.23;20.00;;;10.60;99.90;;;;;;5053160;28;20036;-68
2022/12/26 02:07:36;;;;;;;33.40;21.25;;;10.60;99.90;;;;;;5053456;28;20033;-68
2022/12/26 02:10:02;;;;;;;28.60;19.80;;;10.60;99.90;;;;;;5053894;28;20025;-68
2022/12/26 02:12:30;;;;;;;31.02;20.95;;;10.50;99.90;;;;;;5053120;28;20036;-68
2022/12/26 02:14:57;;;;;;;27.88;20.33;;;10.60;99.90;;;;;;5053087;28;20051;-68
2022/12/26 02:17:24;;;;;;;29.25;19.50;;;10.60;99.90;;;;;;5052113;28;20039;-68
2022/12/26 02:20:03;;;;;;;28.70;20.92;;;10.60;99.90;;;;;;5053012;28;20024;-68
2022/12/26 02:23:06;;;;;;;28.35;20.30;;;10.60;99.90;;;;;;5053290;28;20025;-68
2022/12/26 02:25:46;;;;;;;30.10;20.75;;;10.60;99.90;;;;;;5052965;28;20025;-68
2022/12/26 02:28:30;;;;;;;30.33;21.00;;;10.50;99.90;;;;;;5053204;28;20032;-69
2022/12/26 02:31:30;;;;;;;28.35;20.83;;;10.60;99.90;;;;;;5052874;28;20115;-68
2022/12/26 02:34:08;;;;;;;30.85;20.58;;;10.60;99.90;;;;;;5053514;28;20060;-68
2022/12/26 02:36:59;;;;;;;27.88;19.50;;;10.60;99.90;;;;;;5053182;28;20028;-68
2022/12/26 02:39:39;;;;;;;28.45;20.42;;;10.60;99.90;;;;;;5052467;28;20112;-68
2022/12/26 02:42:35;;;;;;;30.35;21.15;;;10.60;99.90;;;;;;5053100;28;20132;-68
2022/12/26 02:48:35;;;;;;;30.58;21.95;;;10.60;99.90;;;;;;5052839;28;20090;-68
2022/12/26 03:14:16;;;;;;;32.17;24.20;;;10.60;99.90;;;;;;5055476;28;20087;-68
2022/12/26 03:19:32;;;;;;;32.45;23.92;;;10.60;99.90;;;;;;5056048;28;20500;-68
2022/12/26 03:21:59;;;;;;;30.33;22.48;;;10.50;99.90;;;;;;5054788;28;20065;-69
2022/12/26 03:26:38;;;;;;;28.73;23.25;;;10.50;99.90;;;;;;5054716;28;20025;-70
2022/12/26 03:27:12;;;;;;;31.52;22.05;;;10.50;99.90;;;;;;5054744;28;20121;-68
2022/12/26 03:32:21;;;;;;;28.30;20.67;;;10.40;99.90;;;;;;5055798;28;20044;-69
2022/12/26 03:34:47;;;;;;;29.55;22.20;;;10.40;99.90;;;;;;5055643;28;20033;-68
2022/12/26 03:37:12;;;;;;;28.13;22.25;;;10.40;99.90;;;;;;5055876;28;20057;-68
2022/12/26 04:44:08;;;;;;;38.20;29.63;;;10.20;99.90;;;;;;5054606;28;20036;-68
2022/12/26 04:46:38;;;;;;;38.75;28.83;;;10.30;99.90;;;;;;5054912;28;20475;-68
2022/12/26 04:52:01;;;;;;;36.40;29.33;;;10.30;99.90;;;;;;5030798;28;20058;-68
2022/12/26 04:54:27;;;;;;;36.00;28.60;;;10.30;99.90;;;;;;5054164;28;20103;-69
2022/12/26 04:56:53;;;;;;;34.85;27.80;;;10.30;99.90;;;;;;5053574;28;20040;-70
2022/12/26 04:59:20;;;;;;;32.53;28.02;;;10.30;99.90;;;;;;5054002;28;20021;-69
2022/12/26 05:10:24;;;;;;;29.50;24.40;;;10.30;99.90;;;;;;5054220;28;20043;-69
2022/12/26 05:12:50;;;;;;;27.33;23.02;;;10.30;99.90;;;;;;5053815;28;20044;-69
2022/12/26 05:15:17;;;;;;;24.90;22.20;;;10.30;99.90;;;;;;5054205;28;20118;-69
2022/12/26 05:28:56;;;;;;;19.75;17.65;;;10.30;99.90;;;;;;5054126;28;20099;-68
2022/12/26 05:31:21;;;;;;;;;;;10.30;99.90;;;;;;5052940;28;20035;-68
2022/12/26 05:34:09;;;;;;;19.00;16.60;;;10.30;99.90;;;;;;5052531;28;20003;-68
2022/12/26 05:36:57;;;;;;;18.27;16.27;;;10.30;99.90;;;;;;5053327;28;20037;-68
2022/12/26 05:39:22;;;;;;;17.20;15.40;;;10.20;99.90;;;;;;5054058;28;20025;-68
2022/12/26 05:41:48;;;;;;;17.52;15.45;;;10.20;99.90;;;;;;5053310;28;20043;-68
2022/12/26 05:44:14;;;;;;;15.65;14.05;;;10.20;99.90;;;;;;5053293;28;20501;-68
2022/12/26 05:46:41;;;;;;;14.52;13.02;;;10.20;99.90;;;;;;5053542;28;20044;-69
2022/12/26 05:49:08;;;;;;;14.18;12.65;;;10.20;99.90;;;;;;5052313;28;20044;-68
2022/12/26 05:51:34;;;;;;;12.55;11.13;;;10.20;99.90;;;;;;5051930;28;20115;-69
2022/12/26 05:54:01;;;;;;;14.32;10.85;;;10.20;99.90;;;;;;5053279;28;20037;-68
2022/12/26 05:56:27;;;;;;;10.88;9.77;;;10.20;99.90;;;;;;5053178;28;20029;-68
2022/12/26 05:58:54;;;;;;;11.05;9.82;;;10.10;99.90;;;;;;5035687;28;20037;-69
2022/12/26 06:01:20;;;;;;;10.40;9.30;;;10.10;99.90;;;;;;5053379;28;20059;-68
2022/12/26 06:03:51;;;;;;;11.13;9.30;;;10.10;99.90;;;;;;5053450;28;20420;-69
2022/12/26 06:06:18;;;;;;;11.48;8.52;;;10.20;99.90;;;;;;5053096;28;20473;-68
2022/12/26 06:08:48;;;;;;;10.43;8.23;;;10.10;99.90;;;;;;5052439;28;20025;-69
2022/12/26 06:11:14;;;;;;;8.05;7.25;;;10.20;99.90;;;;;;5053365;28;20033;-68
2022/12/26 06:13:41;;;;;;;9.88;7.57;;;10.20;99.90;;;;;;5052684;28;20425;-68
2022/12/26 06:16:17;;;;;;;8.93;6.93;;;10.20;99.90;;;;;;5052918;28;20063;-68
2022/12/26 06:18:43;;;;;;;7.10;6.40;;;10.20;99.90;;;;;;5053353;28;20056;-68
2022/12/26 06:21:11;;;;;;;6.90;6.20;;;10.20;99.90;;;;;;5053180;28;20516;-69
2022/12/26 06:23:38;;;;;;;7.55;6.32;;;10.20;99.90;;;;;;5052954;28;20021;-69
2022/12/26 06:26:04;;;;;;;9.18;6.25;;;10.20;99.90;;;;;;5053217;28;20037;-69
2022/12/26 06:28:32;;;;;;;7.68;5.90;;;10.20;99.90;;;;;;5052819;28;20120;-69
2022/12/26 06:31:04;;;;;;;6.68;5.50;;;10.10;99.90;;;;;;5054661;28;20067;-69
2022/12/26 06:33:30;;;;;;;6.40;5.80;;;10.10;99.90;;;;;;5057074;28;20124;-69
2022/12/26 06:36:05;;;;;;;6.30;5.70;;;10.10;99.90;;;;;;5057109;28;20116;-69
2022/12/26 06:38:31;;;;;;;8.75;6.25;;;10.10;99.90;;;;;;5056532;28;20021;-69
2022/12/26 06:40:57;;;;;;;7.18;6.47;;;10.10;99.90;;;;;;5056561;28;20037;-69
2022/12/26 06:43:23;;;;;;;6.20;5.60;;;10.10;99.90;;;;;;5057019;28;20111;-69
2022/12/26 06:45:59;;;;;;;7.97;5.78;;;10.10;99.90;;;;;;5039003;28;20056;-69
2022/12/26 06:48:25;;;;;;;6.72;5.90;;;10.10;99.90;;;;;;5056718;28;20036;-69
2022/12/26 06:50:53;;;;;;;8.02;5.93;;;10.10;99.90;;;;;;5055423;28;20029;-69
2022/12/26 06:53:22;;;;;;;6.55;5.68;;;10.10;99.90;;;;;;5056750;28;20082;-69
2022/12/26 06:55:48;;;;;;;9.10;6.65;;;10.10;99.90;;;;;;5057001;28;20120;-69
2022/12/26 06:58:15;;;;;;;10.20;6.40;;;10.10;99.90;;;;;;5056631;28;20044;-72
2022/12/26 07:00:40;;;;;;;7.90;6.05;;;10.10;99.90;;;;;;5056202;28;20040;-72
2022/12/26 07:03:06;;;;;;;8.63;6.82;;;10.10;99.90;;;;;;5056520;28;20029;-69
2022/12/26 07:05:35;;;;;;;9.00;6.07;;;10.10;99.90;;;;;;5056546;28;20029;-69
2022/12/26 07:08:01;;;;;;;10.77;6.85;;;10.10;99.90;;;;;;5056237;28;20100;-69
2022/12/26 07:10:26;;;;;;;8.90;6.55;;;10.10;99.90;;;;;;5056451;28;20164;-69
2022/12/26 07:12:52;;;;;;;7.47;6.68;;;10.10;99.90;;;;;;5056421;28;20037;-69
2022/12/26 07:15:18;;;;;;;7.72;6.20;;;10.10;99.90;;;;;;5055023;28;20044;-69
2022/12/26 07:17:43;;;;;;;10.45;6.93;;;10.10;99.90;;;;;;5054761;28;20529;-69
2022/12/26 07:20:09;;;;;;;9.82;7.95;;;10.10;99.90;;;;;;5055920;28;20029;-69
2022/12/26 07:22:35;;;;;;;9.52;7.32;;;10.10;99.90;;;;;;5039178;28;20364;-69
2022/12/26 07:25:01;;;;;;;10.48;7.43;;;10.10;99.90;;;;;;5056173;28;20029;-69
2022/12/26 07:27:26;;;;;;;9.55;7.97;;;10.10;99.90;;;;;;5056048;28;20032;-69
2022/12/26 07:29:52;;;;;;;8.70;7.22;;;10.10;99.90;;;;;;5054852;28;20580;-69
2022/12/26 07:32:18;;;;;;;10.75;8.35;;;10.10;99.90;;;;;;5055792;28;20073;-69
2022/12/26 07:34:44;;;;;;;9.63;8.02;;;10.10;99.90;;;;;;5054899;28;20413;-69
2022/12/26 07:37:09;;;;;;;11.07;8.13;;;10.20;99.90;;;;;;5056615;28;20505;-69
2022/12/26 07:39:36;;;;;;;9.95;7.90;;;10.10;99.90;;;;;;5055972;28;20037;-69
2022/12/26 07:42:03;;;;;;;8.68;7.32;;;10.10;99.90;;;;;;5055628;28;20041;-69
2022/12/26 07:44:31;;;;;;;9.18;7.60;;;10.10;99.90;;;;;;5038106;28;20029;-69
2022/12/26 07:46:58;;;;;;;10.48;7.93;;;10.10;99.90;;;;;;5055021;28;20063;-69
2022/12/26 07:49:24;;;;;;;10.00;7.60;;;10.10;99.90;;;;;;5054216;28;20037;-70
2022/12/26 07:51:50;;;;;;;9.82;7.25;;;10.20;99.90;;;;;;5055648;28;20079;-69
2022/12/26 07:54:16;;;;;;;10.15;7.20;;;10.10;99.90;;;;;;5054462;28;20032;-70
2022/12/26 07:56:42;;;;;;;9.68;7.30;;;10.10;99.90;;;;;;5056107;28;20094;-70
2022/12/26 07:59:12;;;;;;;8.65;6.68;;;10.10;99.90;;;;;;5055783;28;20025;-70
2022/12/26 08:01:38;;;;;;;8.45;6.53;;;10.10;99.90;;;;;;5055166;28;20037;-70
2022/12/26 08:04:04;;;;;;;11.13;6.47;;;10.10;99.90;;;;;;5054268;28;20021;-71
2022/12/26 08:06:29;;;;;;;8.15;5.82;;;10.10;99.90;;;;;;5053961;28;20412;-69
2022/12/26 08:08:55;;;;;;;7.70;5.93;;;10.00;99.90;;;;;;5053982;28;20033;-71
2022/12/26 08:11:23;;;;;;;8.40;5.80;;;10.00;99.90;;;;;;5054964;28;20048;-71
2022/12/26 08:13:50;;;;;;;7.60;5.03;;;10.10;99.90;;;;;;5055681;28;20415;-72
2022/12/26 08:16:16;;;;;;;7.05;4.82;;;10.00;99.90;;;;;;5055488;28;20119;-73
2022/12/26 08:18:42;;;;;;;7.65;4.72;;;10.00;99.90;;;;;;5053863;28;20036;-73
2022/12/26 08:21:09;;;;;;;5.85;4.10;;;10.00;99.90;;;;;;5053733;28;20033;-72
2022/12/26 08:23:34;;;;;;;7.00;3.78;;;10.10;99.90;;;;;;5055077;28;20037;-73
2022/12/26 08:26:05;;;;;;;6.65;3.78;;;10.10;99.90;;;;;;5055277;28;20032;-72
2022/12/26 08:28:31;;;;;;;8.40;3.60;;;10.10;99.90;;;;;;5053940;28;20470;-70
2022/12/26 08:30:56;;;;;;;5.00;3.17;;;10.10;99.90;;;;;;5054780;28;20029;-70
2022/12/26 08:33:22;;;;;;;4.63;2.92;;;10.20;99.90;;;;;;5053531;28;20064;-70
2022/12/26 08:35:47;;;;;;;9.10;3.65;;;10.20;99.90;;;;;;5053440;28;20120;-70
2022/12/26 08:38:13;;;;;;;5.78;3.03;;;10.20;99.90;;;;;;5053427;28;20040;-70
2022/12/26 08:40:39;;;;;;;6.93;3.03;;;10.30;99.90;;;;;;5054581;28;20033;-70
2022/12/26 08:43:05;;;;;;;6.57;2.65;;;10.30;99.90;;;;;;5053491;28;20040;-72
2022/12/26 08:45:31;;;;;;;6.65;2.80;;;10.20;99.90;;;;;;5053906;28;20035;-72
2022/12/26 08:47:58;;;;;;;3.75;2.60;;;10.30;99.90;;;;;;5054216;28;20033;-72
2022/12/26 08:50:25;;;;;;;4.57;2.30;;;10.20;99.90;;;;;;5054251;28;20095;-70
2022/12/26 08:52:50;;;;;;;3.88;2.25;;;10.30;99.90;;;;;;5053623;28;20462;-71
2022/12/26 08:55:16;;;;;;;5.97;2.33;;;10.30;99.90;;;;;;5053763;28;20033;-71
2022/12/26 08:57:42;;;;;;;5.40;2.70;;;10.30;99.90;;;;;;5036670;28;20029;-76
2022/12/26 09:00:08;;;;;;;4.75;2.40;;;10.30;99.90;;;;;;5036426;28;20082;-71
2022/12/26 09:02:34;;;;;;;5.30;2.40;;;10.30;99.90;;;;;;5053059;28;20060;-70
2022/12/26 09:05:00;;;;;;;3.05;1.88;;;10.40;99.90;;;;;;5054142;28;20437;-70
2022/12/26 09:07:25;;;;;;;7.88;2.10;;;10.40;99.90;;;;;;5053343;28;20389;-73
2022/12/26 09:09:51;;;;;;;4.35;1.77;;;10.40;99.90;;;;;;5053326;28;20457;-72
2022/12/26 09:12:17;;;;;;;4.40;1.90;;;10.40;99.90;;;;;;5052915;28;20025;-72
2022/12/26 09:14:42;;;;;;;4.43;1.63;;;10.40;99.90;;;;;;5052010;28;20530;-72
2022/12/26 09:17:14;;;;;;;8.68;1.75;;;10.40;99.90;;;;;;5053449;28;20409;-72
2022/12/26 09:19:40;;;;;;;7.15;1.60;;;10.50;99.90;;;;;;5052571;28;20047;-72
2022/12/26 09:24:49;;;;;;;5.57;1.38;;;10.50;99.90;;;;;;5053630;28;20146;-72
2022/12/26 09:27:15;;;;;;;2.92;1.30;;;10.50;99.90;;;;;;5053567;28;20116;-72
2022/12/26 09:29:41;;;;;;;4.95;1.27;;;10.50;99.90;;;;;;5053449;28;20107;-72
2022/12/26 09:32:06;;;;;;;5.00;1.58;;;10.50;99.90;;;;;;5052606;28;20036;-71
2022/12/26 09:34:32;;;;;;;7.63;1.50;;;10.50;99.90;;;;;;5035709;28;20028;-72
2022/12/26 09:36:57;;;;;;;6.38;1.42;;;10.50;99.90;;;;;;5052454;28;20033;-72
2022/12/26 09:39:23;;;;;;;10.55;1.83;;;10.60;99.90;;;;;;5036557;28;20438;-73
2022/12/26 09:42:21;;;;;;;5.70;1.30;;;10.60;99.90;;;;;;5054139;28;20044;-72
2022/12/26 09:45:28;;;;;;;3.63;1.30;;;10.60;99.90;;;;;;5032822;28;20049;-72
2022/12/26 09:48:19;;;;;;;4.40;1.60;;;10.60;99.90;;;;;;5034662;28;20453;-72
2022/12/26 09:50:49;;;;;;;4.97;1.60;;;10.60;99.90;;;;;;5053499;28;20033;-72
2022/12/26 09:53:24;;;;;;;3.25;1.30;;;10.50;99.90;;;;;;5052851;28;20369;-72
2022/12/26 09:55:57;;;;;;;5.65;1.30;;;10.40;99.90;;;;;;5053749;28;20074;-71
2022/12/26 09:58:34;;;;;;;5.55;1.45;;;10.50;99.90;;;;;;5053505;28;20032;-71
2022/12/26 10:01:09;;;;;;;6.07;1.40;;;10.40;99.90;;;;;;5053908;28;20094;-71
2022/12/26 10:03:51;;;;;;;11.48;2.60;;;10.40;99.90;;;;;;5053631;28;20068;-71
2022/12/26 10:06:20;;;;;;;5.55;1.10;;;10.40;99.90;;;;;;5057411;28;20021;-71
2022/12/26 10:08:52;;;;;;;8.65;1.73;;;10.40;99.90;;;;;;5057800;28;20074;-71
2022/12/26 10:11:41;;;;;;;4.43;2.15;;;10.40;99.90;;;;;;5057595;28;20037;-71
2022/12/26 10:14:15;;;;;;;3.97;1.17;;;10.30;99.90;;;;;;5056549;28;20116;-71
2022/12/26 10:16:58;;;;;;;6.85;0.85;;;10.30;99.90;;;;;;5058243;28;20048;-71
2022/12/26 10:19:42;;;;;;;4.43;1.00;;;10.20;99.90;;;;;;5057874;28;20025;-71
2022/12/26 10:22:48;;;;;;;4.65;0.95;;;10.20;99.90;;;;;;5056786;28;20036;-71
2022/12/26 10:25:22;;;;;;;4.70;1.00;;;10.20;99.90;;;;;;5043585;28;20041;-71
2022/12/26 10:27:50;;;;;;;5.38;0.90;;;10.20;99.90;;;;;;5056714;28;20025;-72
2022/12/26 10:30:29;;;;;;;6.95;1.30;;;10.20;99.90;;;;;;5057388;28;20048;-72
2022/12/26 10:32:59;;;;;;;8.57;1.30;;;10.20;99.90;;;;;;5057737;28;20052;-72
2022/12/26 10:35:37;;;;;;;5.30;0.70;;;10.20;99.90;;;;;;5057163;28;20029;-72
2022/12/26 10:38:12;;;;;;;6.65;1.30;;;10.20;99.90;;;;;;5040000;28;20017;-71
2022/12/26 10:40:45;;;;;;;7.90;1.45;;;10.20;99.90;;;;;;5055350;28;20029;-71
2022/12/26 10:43:23;;;;;;;;;;;10.20;99.90;;;;;;5056296;28;20068;-71
2022/12/26 10:46:10;;;;;;;9.43;1.33;;;10.20;99.90;;;;;;5057393;28;19904;-71
2022/12/26 10:48:35;;;;;;;12.38;1.60;;;10.20;99.90;;;;;;5055853;28;20095;-72
2022/12/26 10:51:02;;;;;;;6.22;1.08;;;10.10;99.90;;;;;;5056775;28;20171;-72
2022/12/26 10:53:28;;;;;;;9.07;1.38;;;10.10;99.90;;;;;;5056422;28;20112;-71
2022/12/26 10:55:55;;;;;;;12.07;1.85;;;10.10;99.90;;;;;;5055439;28;20104;-72
2022/12/26 10:58:34;;;;;;;12.60;1.45;;;10.00;99.90;;;;;;5057400;28;20060;-71
2022/12/26 11:01:38;;;;;;;9.93;1.15;;;9.80;99.90;;;;;;5056709;28;20033;-71
2022/12/26 11:04:14;;;;;;;7.53;1.00;;;9.70;99.90;;;;;;5056473;28;20104;-72
2022/12/26 11:06:41;;;;;;;23.15;2.08;;;9.70;99.90;;;;;;5056500;28;20381;-72
2022/12/26 11:09:25;;;;;;;12.05;1.15;;;9.70;99.90;;;;;;5056043;28;20028;-71
2022/12/26 11:11:53;;;;;;;12.68;1.23;;;9.50;99.90;;;;;;5055009;28;20025;-71
2022/12/26 11:14:35;;;;;;;14.32;1.20;;;9.50;99.90;;;;;;5055083;28;20040;-71
2022/12/26 11:17:24;;;;;;;10.82;1.52;;;9.40;99.90;;;;;;5056308;28;20045;-72
2022/12/26 11:20:14;;;;;;;11.50;1.52;;;9.40;99.90;;;;;;5056611;28;20028;-71
2022/12/26 11:22:40;;;;;;;9.73;1.08;;;9.30;99.90;;;;;;5056750;28;20071;-71
2022/12/26 11:25:11;;;;;;;12.13;0.93;;;9.40;99.90;;;;;;5055029;28;20037;-72
2022/12/26 11:27:46;;;;;;;8.98;1.67;;;9.30;99.90;;;;;;5056109;28;20029;-71
2022/12/26 11:30:27;;;;;;;9.88;1.15;;;9.30;99.90;;;;;;5055993;28;20029;-71
2022/12/26 11:33:08;;;;;;;15.65;1.25;;;9.30;99.90;;;;;;5055273;28;20025;-71
2022/12/26 11:35:36;;;;;;;10.35;1.30;;;9.30;99.90;;;;;;5056054;28;20055;-71
2022/12/26 11:38:05;;;;;;;10.52;0.90;;;9.40;99.90;;;;;;5055776;28;20029;-72
2022/12/26 11:41:30;;;;;;;11.55;1.90;;;9.30;99.90;;;;;;5056337;28;20082;-71
2022/12/26 11:43:25;;;;;;;;;;;9.30;99.90;;;;;;5055858;28;20040;-71
2022/12/26 11:45:51;;;;;;;8.25;0.73;;;9.30;99.90;;;;;;5055552;28;19958;-71
2022/12/26 11:48:26;;;;;;;11.73;0.77;;;9.30;99.90;;;;;;5037825;28;20029;-72
2022/12/26 11:50:53;;;;;;;9.95;1.15;;;9.20;99.90;;;;;;5055136;28;20037;-72
2022/12/26 11:53:21;;;;;;;11.63;1.30;;;9.30;99.90;;;;;;5037722;28;20128;-71
2022/12/26 11:56:23;;;;;;;10.70;0.90;;;9.20;99.90;;;;;;5055885;28;20104;-71
2022/12/26 11:59:05;;;;;;;11.73;1.80;;;9.20;99.90;;;;;;5045796;28;20033;-72
2022/12/26 12:01:31;;;;;;;10.68;1.25;;;9.20;99.90;;;;;;5055762;28;20037;-71
2022/12/26 12:03:57;;;;;;;9.30;0.52;;;9.20;99.90;;;;;;5037618;28;20075;-71
2022/12/26 12:06:42;;;;;;;8.20;0.68;;;9.30;99.90;;;;;;5054165;28;20111;-71
2022/12/26 12:09:34;;;;;;;8.80;0.75;;;9.30;99.90;;;;;;5055737;28;20075;-72
2022/12/26 12:12:21;;;;;;;8.75;0.68;;;9.20;99.90;;;;;;5054500;28;20032;-71
2022/12/26 12:14:59;;;;;;;7.18;0.80;;;9.30;99.90;;;;;;5055354;28;20021;-72
2022/12/26 12:17:52;;;;;;;9.63;0.73;;;9.30;99.90;;;;;;5055083;28;20043;-71
2022/12/26 12:20:29;;;;;;;7.22;1.10;;;9.30;99.90;;;;;;5054586;28;20426;-71
2022/12/26 12:23:39;;;;;;;13.93;1.02;;;9.30;99.90;;;;;;5055857;28;20118;-72
2022/12/26 12:26:14;;;;;;;8.65;0.60;;;9.40;99.90;;;;;;5055160;28;20134;-72
2022/12/26 12:29:09;;;;;;;6.38;0.60;;;9.40;99.90;;;;;;5053771;28;20026;-72
2022/12/26 12:31:49;;;;;;;7.18;0.40;;;9.40;99.90;;;;;;5055048;28;20072;-72
2022/12/26 12:34:25;;;;;;;7.40;0.50;;;9.40;99.90;;;;;;5054993;28;20477;-72
2022/12/26 12:37:15;;;;;;;5.22;0.50;;;9.40;99.90;;;;;;5053929;28;20025;-73
2022/12/26 12:40:20;;;;;;;7.55;0.73;;;9.40;99.90;;;;;;5054805;28;20373;-72
2022/12/26 12:43:04;;;;;;;11.35;1.00;;;9.30;99.90;;;;;;5055360;28;20068;-72
2022/12/26 12:45:40;;;;;;;5.60;0.70;;;9.30;99.90;;;;;;5054441;28;20029;-72
2022/12/26 12:48:39;;;;;;;3.55;0.30;;;9.20;99.90;;;;;;5054994;28;20080;-72
2022/12/26 12:51:23;;;;;;;7.55;0.80;;;9.30;99.90;;;;;;5054033;28;20052;-71
2022/12/26 12:54:00;;;;;;;5.95;1.23;;;9.20;99.90;;;;;;5053740;28;20148;-72
2022/12/26 12:56:52;;;;;;;9.10;0.57;;;9.30;99.90;;;;;;5054822;28;20090;-71
2022/12/26 12:59:20;;;;;;;8.00;0.40;;;9.40;99.90;;;;;;5053056;28;20025;-72
2022/12/26 13:01:50;;;;;;;5.55;0.50;;;9.40;99.80;;;;;;5054346;28;20094;-72
2022/12/26 13:04:42;;;;;;;7.60;0.43;;;9.50;99.90;;;;;;5054602;28;20029;-72
2022/12/26 13:07:21;;;;;;;7.07;0.70;;;9.50;99.90;;;;;;5054248;28;20057;-71
2022/12/26 13:09:51;;;;;;;4.13;0.60;;;9.50;99.90;;;;;;5054528;28;20031;-71
2022/12/26 13:12:24;;;;;;;6.30;0.77;;;9.50;99.90;;;;;;5053217;28;20531;-72
2022/12/26 13:14:59;;;;;;;7.88;0.60;;;9.50;99.90;;;;;;5052752;28;20021;-72
2022/12/26 13:17:33;;;;;;;7.43;0.50;;;9.50;99.80;;;;;;5054103;28;20496;-72
2022/12/26 13:20:14;;;;;;;3.53;0.43;;;9.50;99.70;;;;;;5054339;28;20025;-72
2022/12/26 13:25:39;;;;;;;6.75;0.73;;;9.40;99.60;;;;;;5053731;28;20027;-72
2022/12/26 13:28:12;;;;;;;6.97;0.90;;;9.30;99.50;;;;;;5053015;28;20538;-72
2022/12/26 13:30:38;;;;;;;7.53;1.10;;;9.30;99.80;;;;;;5053996;28;20449;-71
2022/12/26 13:33:05;;;;;;;6.50;0.50;;;9.30;99.70;;;;;;5053525;28;20396;-72
2022/12/26 13:35:52;;;;;;;6.95;0.32;;;9.30;99.30;;;;;;5053564;28;20029;-72
2022/12/26 13:38:20;;;;;;;7.35;0.60;;;9.30;99.30;;;;;;5054106;28;20017;-71
2022/12/26 13:44:18;;;;;;;3.55;0.50;;;9.20;99.40;;;;;;5034033;28;20555;-72
2022/12/26 13:46:47;;;;;;;3.92;0.40;;;9.20;98.80;;;;;;5020007;28;20029;-72
2022/12/26 13:49:38;;;;;;;8.82;0.98;;;9.20;98.70;;;;;;5053360;28;20028;-72
2022/12/26 13:52:10;;;;;;;5.20;0.50;;;9.10;98.20;;;;;;5053100;28;20032;-71
2022/12/26 13:54:57;;;;;;;5.88;0.60;;;9.10;98.40;;;;;;5052019;28;20048;-71
2022/12/26 13:57:41;;;;;;;5.70;0.70;;;9.10;98.30;;;;;;5042357;28;20071;-72
2022/12/26 14:00:43;;;;;;;6.80;0.50;;;9.10;97.50;;;;;;5052490;28;20029;-72
2022/12/26 14:03:14;;;;;;;5.70;0.50;;;9.00;96.80;;;;;;5053316;28;20029;-71
2022/12/26 14:06:11;;;;;;;4.75;0.30;;;9.00;96.10;;;;;;5053389;28;20036;-72
2022/12/26 14:09:23;;;;;;;7.15;0.82;;;9.00;96.30;;;;;;5053404;28;20029;-71
2022/12/26 14:12:01;;;;;;;6.10;0.40;;;8.90;96.00;;;;;;4975478;28;20030;-71
2022/12/26 14:14:30;;;;;;;8.88;1.48;;;8.90;96.00;;;;;;4992112;28;20503;-71
2022/12/26 14:17:09;;;;;;;5.55;0.40;;;8.90;95.70;;;;;;5026860;28;20390;-71
2022/12/26 14:20:16;;;;;;;4.88;0.50;;;8.90;95.80;;;;;;5053730;28;20086;-72
2022/12/26 14:23:20;;;;;;;6.25;0.80;;;8.90;95.20;;;;;;5032314;28;20415;-71
2022/12/26 14:25:51;;;;;;;6.88;1.10;;;8.90;95.40;;;;;;5049328;28;20055;-71
2022/12/26 14:28:50;;;;;;;4.03;0.38;;;8.80;95.20;;;;;;5053916;28;20365;-72
2022/12/26 14:31:34;;;;;;;4.65;0.60;;;8.80;95.40;;;;;;5052216;28;20033;-71
2022/12/26 14:34:02;;;;;;;11.05;2.88;;;8.70;95.50;;;;;;5053326;28;20033;-71
2022/12/26 14:36:50;;;;;;;7.68;0.90;;;8.70;95.80;;;;;;5051899;28;20033;-71
2022/12/26 14:39:19;;;;;;;9.18;0.80;;;8.80;95.80;;;;;;5051988;28;20032;-71
2022/12/26 14:44:58;;;;;;;8.90;0.70;;;8.80;95.90;;;;;;5053205;28;20489;-71
2022/12/26 14:47:54;;;;;;;6.13;0.52;;;8.70;95.70;;;;;;5052256;28;20033;-71
2022/12/26 14:50:31;;;;;;;6.50;1.05;;;8.70;96.00;;;;;;5018621;28;20492;-70
2022/12/26 14:53:19;;;;;;;5.25;0.63;;;8.70;96.20;;;;;;5057263;28;20370;-71
2022/12/26 14:55:48;;;;;;;6.72;0.60;;;8.60;96.00;;;;;;5055478;28;20032;-71
2022/12/26 14:58:31;;;;;;;4.97;0.50;;;8.60;96.20;;;;;;5056715;28;20075;-72
2022/12/26 15:01:17;;;;;;;5.65;0.77;;;8.50;96.10;;;;;;5056329;28;20044;-71
2022/12/26 15:03:58;;;;;;;7.30;0.80;;;8.50;96.30;;;;;;5056403;28;20033;-71
2022/12/26 15:06:48;;;;;;;7.93;0.63;;;8.50;96.30;;;;;;5057217;28;20334;-71
2022/12/26 15:09:25;;;;;;;6.38;1.48;;;8.40;96.20;;;;;;5056586;28;20029;-73
2022/12/26 15:12:20;;;;;;;7.07;1.08;;;8.40;96.30;;;;;;5056593;28;20036;-72
2022/12/26 15:15:04;;;;;;;6.13;0.90;;;8.40;96.40;;;;;;5056557;28;20476;-71
2022/12/26 15:17:41;;;;;;;9.18;1.23;;;8.30;96.30;;;;;;5056276;28;20466;-72
2022/12/26 15:20:35;;;;;;;5.30;0.70;;;8.30;96.10;;;;;;5056724;28;20051;-71
2022/12/26 15:23:19;;;;;;;4.85;0.80;;;8.30;96.30;;;;;;5056299;28;20025;-71
2022/12/26 15:26:06;;;;;;;6.32;1.27;;;8.30;96.10;;;;;;5055947;28;20029;-71
2022/12/26 15:28:42;;;;;;;7.28;0.80;;;8.30;96.20;;;;;;5056645;28;20068;-71